Time;durP1;ratioP1;P1;durP2;ratioP2;P2;SDS_P1;SDS_P2;PMS_P1;PMS_P2;Temp;Humidity;BMP_temperature;BMP_pressure;BME280_temperature;BME280_humidity;BME280_pressure;Samples;Min_cycle;Max_cycle;Signal;HPM_P1;HPM_P2
2023/04/10 00:00:57;;;;;;;46.43;26.03;;;3.20;99.90;;;;;;5164698;27;20546;-69
2023/04/10 00:03:24;;;;;;;45.43;27.10;;;3.10;99.90;;;;;;5163626;27;20238;-70
2023/04/10 00:05:53;;;;;;;43.93;24.80;;;3.10;99.90;;;;;;5166626;27;20612;-69
2023/04/10 00:08:20;;;;;;;48.17;29.80;;;3.10;99.90;;;;;;5162123;27;20582;-69
2023/04/10 00:10:47;;;;;;;47.87;28.10;;;3.20;99.90;;;;;;5166932;27;20314;-69
2023/04/10 00:13:16;;;;;;;47.77;27.90;;;3.30;99.90;;;;;;5164052;27;20195;-71
2023/04/10 00:15:43;;;;;;;51.83;29.60;;;3.30;99.90;;;;;;5162771;27;20237;-70
2023/04/10 00:18:11;;;;;;;49.40;26.57;;;3.30;99.90;;;;;;5169741;27;20222;-70
2023/04/10 00:20:38;;;;;;;45.83;27.40;;;3.20;99.90;;;;;;5166048;27;20234;-69
2023/04/10 00:23:07;;;;;;;43.43;25.27;;;3.40;99.90;;;;;;5160451;27;20227;-70
2023/04/10 00:25:34;;;;;;;39.13;24.27;;;3.30;99.90;;;;;;5160186;27;20441;-70
2023/04/10 00:28:00;;;;;;;42.30;22.97;;;2.90;99.90;;;;;;5161394;27;20248;-70
2023/04/10 00:30:29;;;;;;;42.40;24.57;;;2.60;99.90;;;;;;5167741;27;20218;-70
2023/04/10 00:32:56;;;;;;;39.97;23.83;;;2.40;99.90;;;;;;5169456;27;20223;-69
2023/04/10 00:35:23;;;;;;;39.43;23.53;;;2.30;99.90;;;;;;5167515;27;20191;-70
2023/04/10 00:37:50;;;;;;;48.07;26.67;;;2.30;99.90;;;;;;5169227;27;20656;-70
2023/04/10 00:40:17;;;;;;;42.80;26.87;;;2.40;99.90;;;;;;5160771;27;20191;-70
2023/04/10 00:42:44;;;;;;;46.23;25.40;;;2.40;99.90;;;;;;5167336;27;20649;-70
2023/04/10 00:45:11;;;;;;;44.63;25.13;;;2.30;99.90;;;;;;5158645;27;20203;-70
2023/04/10 00:47:40;;;;;;;38.40;23.27;;;2.20;99.90;;;;;;5160092;27;20217;-70
2023/04/10 00:50:07;;;;;;;42.87;24.30;;;2.10;99.90;;;;;;5171506;27;20592;-70
2023/04/10 00:52:35;;;;;;;39.40;25.03;;;2.10;99.90;;;;;;5166036;27;20239;-70
2023/04/10 00:55:02;;;;;;;43.40;24.70;;;1.90;99.90;;;;;;5163506;27;20653;-69
2023/04/10 00:57:29;;;;;;;43.60;25.60;;;2.10;99.90;;;;;;5161432;27;20191;-69
2023/04/10 00:59:56;;;;;;;45.33;26.97;;;2.30;99.90;;;;;;5166089;27;20211;-70
2023/04/10 01:02:23;;;;;;;41.67;24.90;;;2.20;99.90;;;;;;5168102;27;20238;-70
2023/04/10 01:04:52;;;;;;;42.40;27.83;;;2.20;99.90;;;;;;5165681;27;21794;-70
2023/04/10 01:07:29;;;;;;;37.47;22.33;;;2.20;99.90;;;;;;5166346;27;20239;-70
2023/04/10 01:10:03;;;;;;;37.37;24.63;;;1.90;99.90;;;;;;5170748;27;20231;-70
2023/04/10 01:12:44;;;;;;;36.27;23.43;;;1.60;99.90;;;;;;5161904;27;20203;-70
2023/04/10 01:15:14;;;;;;;34.43;22.13;;;1.50;99.90;;;;;;5161757;27;20212;-70
2023/04/10 01:17:48;;;;;;;37.93;23.77;;;1.30;99.90;;;;;;5166533;27;20195;-69
2023/04/10 01:20:20;;;;;;;43.53;26.17;;;1.40;99.90;;;;;;5168450;27;20278;-69
2023/04/10 01:23:01;;;;;;;43.80;26.20;;;1.40;99.90;;;;;;5165074;27;20199;-70
2023/04/10 01:25:45;;;;;;;40.27;25.43;;;1.40;99.90;;;;;;5167801;27;20641;-70
2023/04/10 01:28:31;;;;;;;44.37;27.33;;;1.60;99.90;;;;;;5161526;27;20187;-69
2023/04/10 01:31:02;;;;;;;41.23;25.50;;;1.70;99.90;;;;;;5165538;27;20654;-69
2023/04/10 01:33:41;;;;;;;43.80;26.47;;;1.70;99.90;;;;;;5164968;27;20234;-69
2023/04/10 01:36:10;;;;;;;41.43;24.57;;;1.70;99.90;;;;;;5166337;27;20199;-69
2023/04/10 01:38:42;;;;;;;42.80;26.37;;;1.50;99.90;;;;;;5168011;27;20249;-69
2023/04/10 01:41:09;;;;;;;43.33;25.53;;;1.50;99.90;;;;;;5176369;27;20282;-69
2023/04/10 01:43:37;;;;;;;42.27;27.13;;;1.40;99.90;;;;;;5166722;27;20203;-69
2023/04/10 01:46:06;;;;;;;43.97;26.53;;;1.50;99.90;;;;;;5160836;27;20234;-69
2023/04/10 01:48:33;;;;;;;41.47;25.70;;;1.40;99.90;;;;;;5176426;27;20226;-69
2023/04/10 01:51:03;;;;;;;43.63;26.73;;;1.40;99.90;;;;;;5163390;27;20304;-70
2023/04/10 01:53:31;;;;;;;45.93;28.60;;;1.40;99.90;;;;;;5171344;27;20199;-70
2023/04/10 01:55:59;;;;;;;43.43;27.27;;;1.50;99.90;;;;;;5172332;27;20220;-69
2023/04/10 01:58:26;;;;;;;45.47;27.17;;;1.50;99.90;;;;;;5158309;27;20199;-70
2023/04/10 02:00:53;;;;;;;50.73;26.40;;;1.60;99.90;;;;;;5174344;27;20211;-69
2023/04/10 02:03:21;;;;;;;53.67;29.80;;;1.60;99.90;;;;;;5168949;27;20729;-69
2023/04/10 02:05:57;;;;;;;49.57;30.50;;;1.60;99.90;;;;;;5174598;27;20247;-70
2023/04/10 02:08:30;;;;;;;54.40;32.73;;;1.50;99.90;;;;;;5174820;27;20237;-69
2023/04/10 02:11:03;;;;;;;51.17;30.77;;;1.50;99.90;;;;;;5167804;27;20254;-69
2023/04/10 02:13:34;;;;;;;46.73;29.33;;;1.50;99.90;;;;;;5173898;27;20203;-69
2023/04/10 02:16:07;;;;;;;49.67;28.97;;;1.50;99.90;;;;;;5153785;27;20224;-70
2023/04/10 02:18:36;;;;;;;48.93;29.13;;;1.40;99.90;;;;;;5158984;27;20266;-70
2023/04/10 02:21:04;;;;;;;52.90;31.03;;;1.20;99.90;;;;;;5154927;27;20249;-70
2023/04/10 02:23:31;;;;;;;47.70;29.83;;;1.40;99.90;;;;;;5174844;27;20203;-69
2023/04/10 02:25:58;;;;;;;50.23;30.43;;;1.40;99.90;;;;;;5174120;27;20195;-69
2023/04/10 02:28:25;;;;;;;51.73;31.00;;;1.40;99.90;;;;;;5160651;27;20290;-69
2023/04/10 02:30:52;;;;;;;55.33;27.83;;;1.60;99.90;;;;;;5174532;27;20227;-69
2023/04/10 02:33:19;;;;;;;49.70;29.97;;;1.50;99.90;;;;;;5174728;27;20195;-69
2023/04/10 02:35:48;;;;;;;52.17;30.00;;;1.50;99.90;;;;;;5176341;27;20222;-69
2023/04/10 02:38:15;;;;;;;56.50;33.03;;;1.50;99.90;;;;;;5168506;27;20236;-69
2023/04/10 02:40:42;;;;;;;56.63;34.87;;;1.60;99.90;;;;;;5173248;27;20278;-70
2023/04/10 02:43:09;;;;;;;54.87;33.27;;;1.60;99.90;;;;;;5168926;27;20239;-70
2023/04/10 02:45:36;;;;;;;60.13;32.40;;;1.50;99.90;;;;;;5172416;27;20219;-70
2023/04/10 02:48:06;;;;;;;60.13;31.17;;;1.60;99.90;;;;;;5173851;27;20676;-69
2023/04/10 02:50:32;;;;;;;55.00;32.63;;;1.50;99.90;;;;;;5175660;27;20202;-69
2023/04/10 02:53:01;;;;;;;54.57;34.33;;;1.60;99.90;;;;;;5171764;27;20267;-70
2023/04/10 02:55:28;;;;;;;55.13;33.67;;;1.60;99.90;;;;;;5166847;27;20195;-70
2023/04/10 02:57:55;;;;;;;60.80;31.23;;;1.60;99.90;;;;;;5173509;27;20614;-70
2023/04/10 03:00:23;;;;;;;56.57;30.80;;;1.60;99.90;;;;;;5166782;27;20244;-69
2023/04/10 03:02:50;;;;;;;57.50;31.37;;;1.60;99.90;;;;;;5173576;27;20234;-70
2023/04/10 03:05:17;;;;;;;54.43;28.70;;;1.50;99.90;;;;;;5168083;27;20206;-69
2023/04/10 03:07:44;;;;;;;51.27;31.93;;;1.60;99.90;;;;;;5174247;27;20222;-69
2023/04/10 03:10:12;;;;;;;50.20;28.93;;;1.60;99.90;;;;;;5175482;27;20711;-69
2023/04/10 03:12:39;;;;;;;52.17;30.97;;;1.60;99.90;;;;;;5173938;27;20250;-69
2023/04/10 03:15:07;;;;;;;53.80;28.77;;;1.70;99.90;;;;;;5166147;27;20226;-69
2023/04/10 03:17:34;;;;;;;53.77;29.10;;;1.70;99.90;;;;;;5173852;27;20206;-69
2023/04/10 03:20:01;;;;;;;52.17;27.90;;;1.80;99.90;;;;;;5172435;27;20291;-69
2023/04/10 03:22:30;;;;;;;52.40;30.67;;;1.80;99.90;;;;;;5173469;27;20211;-69
2023/04/10 03:24:57;;;;;;;52.33;29.67;;;1.80;99.90;;;;;;5157898;27;20290;-70
2023/04/10 03:27:26;;;;;;;51.07;28.77;;;1.80;99.90;;;;;;5173253;27;20637;-69
2023/04/10 03:29:52;;;;;;;47.53;29.20;;;1.70;99.90;;;;;;5157435;27;20693;-69
2023/04/10 03:32:19;;;;;;;50.67;29.43;;;1.60;99.90;;;;;;5173977;27;20262;-69
2023/04/10 03:34:46;;;;;;;50.00;28.20;;;1.60;99.90;;;;;;5172230;27;20616;-70
2023/04/10 03:37:13;;;;;;;47.90;26.10;;;1.50;99.90;;;;;;5173598;27;20246;-69
2023/04/10 03:39:40;;;;;;;40.80;23.97;;;1.50;99.90;;;;;;5174790;27;20194;-70
2023/04/10 03:42:07;;;;;;;45.23;27.27;;;1.50;99.90;;;;;;5160230;27;20286;-69
2023/04/10 03:44:36;;;;;;;44.47;26.83;;;1.60;99.90;;;;;;5170750;27;20634;-69
2023/04/10 03:47:03;;;;;;;41.03;25.07;;;1.60;99.90;;;;;;5172220;27;20203;-69
2023/04/10 03:49:30;;;;;;;41.77;22.90;;;1.50;99.90;;;;;;5174449;27;20226;-69
2023/04/10 03:51:57;;;;;;;43.23;22.60;;;1.40;99.90;;;;;;5163885;27;20223;-69
2023/04/10 03:54:24;;;;;;;43.37;26.10;;;1.40;99.90;;;;;;5174059;27;20233;-69
2023/04/10 03:56:51;;;;;;;43.90;26.80;;;1.20;99.90;;;;;;5170779;27;20227;-69
2023/04/10 03:59:18;;;;;;;43.30;24.33;;;1.40;99.90;;;;;;5164906;27;20274;-69
2023/04/10 04:01:46;;;;;;;43.40;23.73;;;1.40;99.90;;;;;;5163486;27;20531;-69
2023/04/10 04:04:13;;;;;;;39.53;24.10;;;1.40;99.90;;;;;;5174676;27;20191;-70
2023/04/10 04:06:41;;;;;;;42.50;23.17;;;1.10;99.90;;;;;;5171084;27;20282;-70
2023/04/10 04:09:07;;;;;;;40.50;25.20;;;1.20;99.90;;;;;;5153183;27;20231;-69
2023/04/10 04:11:34;;;;;;;42.87;23.03;;;1.30;99.90;;;;;;5166808;27;20265;-69
2023/04/10 04:14:01;;;;;;;42.97;22.73;;;1.50;99.90;;;;;;5174452;27;20231;-69
2023/04/10 04:16:28;;;;;;;43.27;23.50;;;1.50;99.90;;;;;;5172051;27;20291;-69
2023/04/10 04:18:56;;;;;;;38.97;23.80;;;1.50;99.90;;;;;;5161541;27;20234;-69
2023/04/10 04:21:23;;;;;;;36.97;23.70;;;1.20;99.90;;;;;;5172524;27;20376;-69
2023/04/10 04:23:50;;;;;;;39.50;23.93;;;1.10;99.90;;;;;;5154913;27;20204;-69
2023/04/10 04:26:17;;;;;;;40.17;24.50;;;1.10;99.90;;;;;;5164916;27;20235;-71
2023/04/10 04:28:44;;;;;;;41.93;24.43;;;1.30;99.90;;;;;;5173444;27;20186;-69
2023/04/10 04:31:11;;;;;;;43.50;24.80;;;1.30;99.90;;;;;;5166690;27;20199;-69
2023/04/10 04:33:38;;;;;;;42.10;25.17;;;1.20;99.90;;;;;;5153205;27;20225;-68
2023/04/10 04:36:07;;;;;;;45.53;22.90;;;1.40;99.90;;;;;;5171564;27;20199;-69
2023/04/10 04:38:34;;;;;;;42.43;26.10;;;1.50;99.90;;;;;;5163711;27;20187;-68
2023/04/10 04:41:01;;;;;;;41.37;24.63;;;1.50;99.90;;;;;;5169062;27;20573;-68
2023/04/10 04:43:28;;;;;;;37.83;24.40;;;1.40;99.90;;;;;;5164700;27;20242;-69
2023/04/10 04:45:55;;;;;;;44.13;24.53;;;1.40;99.90;;;;;;5172403;27;20199;-68
2023/04/10 04:48:22;;;;;;;41.90;21.93;;;1.50;99.90;;;;;;5172262;27;20267;-68
2023/04/10 04:50:49;;;;;;;41.97;25.77;;;1.20;99.90;;;;;;5169954;27;20279;-69
2023/04/10 04:53:17;;;;;;;41.20;24.40;;;1.30;99.90;;;;;;5152775;27;20215;-68
2023/04/10 04:55:44;;;;;;;39.40;23.43;;;1.50;99.90;;;;;;5166963;27;20263;-69
2023/04/10 04:58:11;;;;;;;40.30;23.97;;;1.50;99.90;;;;;;5172755;27;20258;-68
2023/04/10 05:00:38;;;;;;;40.27;22.27;;;1.90;99.90;;;;;;5171987;27;20227;-69
2023/04/10 05:03:06;;;;;;;41.00;24.00;;;2.10;99.90;;;;;;5172679;27;20227;-68
2023/04/10 05:05:33;;;;;;;41.77;24.63;;;2.60;99.90;;;;;;5164244;27;20274;-69
2023/04/10 05:08:00;;;;;;;41.17;24.23;;;2.60;99.90;;;;;;5159740;27;20226;-69
2023/04/10 05:10:28;;;;;;;39.43;20.80;;;2.50;99.90;;;;;;5160859;27;20241;-68
2023/04/10 05:12:55;;;;;;;40.00;21.83;;;2.60;99.90;;;;;;5163807;27;20299;-65
2023/04/10 05:15:23;;;;;;;39.80;22.30;;;3.10;99.90;;;;;;5159498;27;20781;-65
2023/04/10 05:17:51;;;;;;;42.60;23.77;;;3.60;99.90;;;;;;5162704;27;20670;-65
2023/04/10 05:20:20;;;;;;;40.13;21.50;;;4.00;99.90;;;;;;5167712;27;20203;-65
2023/04/10 05:22:47;;;;;;;41.33;20.67;;;4.20;99.90;;;;;;5165882;27;20200;-65
2023/04/10 05:25:14;;;;;;;39.43;21.93;;;4.70;99.90;;;;;;5160832;27;20223;-65
2023/04/10 05:27:42;;;;;;;40.30;22.63;;;4.80;99.90;;;;;;5160266;27;20571;-65
2023/04/10 05:30:10;;;;;;;39.97;22.30;;;4.60;99.90;;;;;;5162008;27;20248;-65
2023/04/10 05:32:37;;;;;;;38.57;20.50;;;4.80;99.90;;;;;;5157526;27;20272;-65
2023/04/10 05:35:05;;;;;;;43.53;21.20;;;4.50;99.90;;;;;;5159718;27;20288;-65
2023/04/10 05:37:32;;;;;;;39.20;20.80;;;4.60;99.90;;;;;;5166972;27;20195;-65
2023/04/10 05:39:59;;;;;;;36.40;19.83;;;4.80;99.90;;;;;;5160481;27;20196;-65
2023/04/10 05:42:26;;;;;;;35.67;19.80;;;4.70;99.90;;;;;;5166281;27;20206;-65
2023/04/10 05:44:54;;;;;;;35.87;19.07;;;4.60;99.90;;;;;;5161182;27;20204;-65
2023/04/10 05:47:21;;;;;;;33.80;19.63;;;4.60;99.90;;;;;;5161073;27;20278;-65
2023/04/10 05:49:48;;;;;;;37.57;19.40;;;4.80;99.90;;;;;;5161469;27;20238;-65
2023/04/10 05:52:15;;;;;;;32.60;19.37;;;5.40;99.90;;;;;;5167391;27;20298;-65
2023/04/10 05:54:42;;;;;;;33.77;19.03;;;6.30;99.90;;;;;;5166769;27;20227;-65
2023/04/10 05:57:09;;;;;;;33.50;19.30;;;6.90;99.90;;;;;;5165659;27;20289;-65
2023/04/10 05:59:36;;;;;;;33.10;18.87;;;7.30;99.90;;;;;;5170564;27;20673;-65
2023/04/10 06:02:05;;;;;;;30.50;18.37;;;7.00;99.90;;;;;;5164895;27;20223;-65
2023/04/10 06:04:32;;;;;;;30.53;17.17;;;6.40;99.90;;;;;;5163842;27;20196;-65
2023/04/10 06:07:00;;;;;;;32.00;18.80;;;6.20;99.90;;;;;;5166777;27;20199;-65
2023/04/10 06:09:27;;;;;;;30.47;17.57;;;6.10;99.90;;;;;;5164971;27;20621;-65
2023/04/10 06:11:53;;;;;;;33.83;18.63;;;6.10;99.90;;;;;;5170378;27;20408;-65
2023/04/10 06:14:20;;;;;;;31.83;19.37;;;6.20;99.90;;;;;;5167198;27;20227;-65
2023/04/10 06:16:47;;;;;;;32.43;17.97;;;6.70;99.90;;;;;;5166977;27;20199;-65
2023/04/10 06:19:16;;;;;;;30.90;18.53;;;7.30;99.90;;;;;;5172225;27;20227;-65
2023/04/10 06:21:43;;;;;;;31.10;17.57;;;7.90;99.90;;;;;;5163905;27;20736;-65
2023/04/10 06:24:10;;;;;;;31.13;18.07;;;8.00;99.90;;;;;;5171277;27;20282;-65
2023/04/10 06:26:37;;;;;;;28.60;17.50;;;8.50;99.90;;;;;;5171500;27;20567;-65
2023/04/10 06:29:05;;;;;;;27.13;16.83;;;9.30;99.90;;;;;;5165149;27;20203;-65
2023/04/10 06:31:33;;;;;;;28.40;17.70;;;9.10;99.90;;;;;;5171195;27;20325;-65
2023/04/10 06:34:00;;;;;;;29.13;18.97;;;9.20;99.90;;;;;;5170067;27;20226;-65
2023/04/10 06:36:29;;;;;;;26.93;17.17;;;9.30;99.90;;;;;;5170206;27;20222;-65
2023/04/10 06:38:56;;;;;;;29.00;17.37;;;9.10;99.90;;;;;;5164327;27;20195;-65
2023/04/10 06:41:23;;;;;;;28.57;18.47;;;8.80;99.90;;;;;;5161865;27;20237;-65
2023/04/10 06:43:50;;;;;;;26.30;17.73;;;9.00;99.90;;;;;;5160374;27;20211;-65
2023/04/10 06:46:17;;;;;;;29.60;17.80;;;9.10;99.90;;;;;;5158638;27;20199;-65
2023/04/10 06:48:44;;;;;;;25.63;17.07;;;9.00;99.90;;;;;;5168885;27;20195;-65
2023/04/10 06:51:11;;;;;;;25.83;16.30;;;9.10;99.90;;;;;;5162329;27;20249;-65
2023/04/10 06:53:39;;;;;;;25.93;16.20;;;9.20;99.90;;;;;;5166396;27;20243;-65
2023/04/10 06:56:07;;;;;;;28.00;17.37;;;9.50;99.90;;;;;;5173287;27;20286;-64
2023/04/10 06:58:34;;;;;;;23.23;15.27;;;9.80;99.90;;;;;;5165401;27;20710;-64
2023/04/10 07:01:03;;;;;;;25.73;16.20;;;10.20;99.90;;;;;;5169305;27;20295;-64
2023/04/10 07:03:30;;;;;;;25.63;16.63;;;11.00;99.90;;;;;;5171191;27;20203;-64
2023/04/10 07:05:57;;;;;;;25.20;16.77;;;11.00;99.90;;;;;;5172412;27;20275;-65
2023/04/10 07:08:24;;;;;;;23.53;15.63;;;11.10;99.90;;;;;;5171620;27;20233;-64
2023/04/10 07:10:52;;;;;;;22.70;15.97;;;11.00;99.90;;;;;;5166435;27;20652;-65
2023/04/10 07:13:19;;;;;;;22.37;14.60;;;10.90;99.90;;;;;;5170653;27;20269;-65
2023/04/10 07:15:46;;;;;;;22.00;14.73;;;11.50;99.90;;;;;;5160492;27;20603;-64
2023/04/10 07:18:13;;;;;;;22.40;14.37;;;11.80;99.90;;;;;;5166262;27;20195;-64
2023/04/10 07:20:40;;;;;;;23.87;14.53;;;11.30;99.90;;;;;;5168912;27;20472;-64
2023/04/10 07:23:07;;;;;;;19.37;12.07;;;11.20;99.90;;;;;;5167580;27;20195;-64
2023/04/10 07:25:34;;;;;;;19.30;11.97;;;11.60;99.90;;;;;;5166453;27;20236;-64
2023/04/10 07:28:02;;;;;;;18.47;11.43;;;11.80;99.90;;;;;;5168994;27;20222;-64
2023/04/10 07:30:29;;;;;;;18.10;11.33;;;12.30;99.90;;;;;;5171900;27;20234;-64
2023/04/10 07:32:56;;;;;;;18.33;10.93;;;12.90;99.90;;;;;;5164295;27;20215;-64
2023/04/10 07:35:24;;;;;;;17.20;10.83;;;13.30;99.90;;;;;;5163722;27;20199;-64
2023/04/10 07:37:51;;;;;;;16.37;10.03;;;13.80;99.90;;;;;;5169757;27;20210;-64
2023/04/10 07:40:18;;;;;;;18.00;10.90;;;13.90;99.90;;;;;;5172781;27;20293;-64
2023/04/10 07:42:46;;;;;;;17.60;11.03;;;13.20;99.90;;;;;;5163369;27;20278;-64
2023/04/10 07:45:14;;;;;;;15.47;10.27;;;13.60;99.90;;;;;;5164775;27;20602;-69
2023/04/10 07:47:41;;;;;;;15.80;10.20;;;13.40;99.90;;;;;;5163734;27;20231;-64
2023/04/10 07:50:09;;;;;;;17.27;10.53;;;13.80;99.90;;;;;;5165480;27;20194;-64
2023/04/10 07:52:36;;;;;;;17.90;10.70;;;14.00;99.90;;;;;;5173556;27;20219;-64
2023/04/10 07:55:03;;;;;;;16.23;10.77;;;13.50;99.90;;;;;;5165229;27;20199;-64
2023/04/10 07:57:31;;;;;;;16.23;10.57;;;13.20;99.90;;;;;;5173160;27;20206;-64
2023/04/10 07:59:58;;;;;;;16.40;10.67;;;13.70;99.90;;;;;;5167340;27;20207;-64
2023/04/10 08:02:26;;;;;;;16.70;9.90;;;13.40;99.90;;;;;;5168797;27;20282;-64
2023/04/10 08:04:53;;;;;;;17.30;10.73;;;13.40;99.90;;;;;;5166005;27;20234;-64
2023/04/10 08:07:21;;;;;;;15.80;10.30;;;13.40;99.90;;;;;;5171288;27;20203;-64
2023/04/10 08:09:48;;;;;;;16.63;10.20;;;13.70;99.90;;;;;;5164737;27;20594;-64
2023/04/10 08:12:15;;;;;;;16.20;10.70;;;13.70;99.90;;;;;;5167199;27;20199;-65
2023/04/10 08:14:43;;;;;;;15.97;10.60;;;13.60;99.90;;;;;;5166550;27;20210;-65
2023/04/10 08:17:13;;;;;;;15.93;10.53;;;13.60;99.90;;;;;;5164537;27;20211;-65
2023/04/10 08:19:42;;;;;;;17.40;11.07;;;13.70;99.90;;;;;;5170026;27;20231;-65
2023/04/10 08:22:09;;;;;;;17.43;10.83;;;13.90;99.90;;;;;;5165510;27;20294;-64
2023/04/10 08:24:36;;;;;;;18.37;11.57;;;14.10;99.90;;;;;;5165578;27;20261;-65
2023/04/10 08:27:02;;;;;;;17.10;10.67;;;14.10;99.90;;;;;;5170481;27;20672;-65
2023/04/10 08:29:29;;;;;;;18.13;11.50;;;14.10;99.90;;;;;;5171983;27;20286;-65
2023/04/10 08:31:59;;;;;;;18.67;11.70;;;14.20;99.90;;;;;;5170435;27;20223;-65
2023/04/10 08:34:26;;;;;;;15.50;10.83;;;14.30;99.90;;;;;;5165655;27;20225;-65
2023/04/10 08:36:54;;;;;;;16.67;10.63;;;14.40;99.90;;;;;;5171805;27;20213;-64
2023/04/10 08:39:21;;;;;;;16.90;10.40;;;14.20;99.90;;;;;;5159406;27;20272;-64
2023/04/10 08:41:48;;;;;;;15.80;10.60;;;14.60;99.90;;;;;;5164316;27;20240;-65
2023/04/10 08:44:16;;;;;;;17.63;10.50;;;14.80;99.90;;;;;;5168431;27;20227;-65
2023/04/10 08:46:44;;;;;;;17.52;11.13;;;14.90;99.90;;;;;;5171189;27;20304;-65
2023/04/10 08:49:17;;;;;;;15.27;10.33;;;15.20;99.90;;;;;;5170437;27;20691;-65
2023/04/10 08:51:51;;;;;;;17.17;10.73;;;15.30;99.90;;;;;;5162660;27;20202;-65
2023/04/10 08:54:28;;;;;;;15.82;10.48;;;15.70;99.90;;;;;;5165501;27;20268;-65
2023/04/10 08:56:57;;;;;;;15.35;9.93;;;15.50;99.90;;;;;;5169101;27;20649;-65
2023/04/10 08:59:24;;;;;;;16.35;10.60;;;15.70;99.90;;;;;;5167841;27;20198;-65
2023/04/10 09:01:52;;;;;;;15.90;9.98;;;15.60;99.90;;;;;;5165107;27;20286;-65
2023/04/10 09:04:19;;;;;;;15.02;10.45;;;15.60;99.90;;;;;;5156175;27;20195;-65
2023/04/10 09:06:46;;;;;;;15.75;10.23;;;15.70;99.90;;;;;;5168960;27;20537;-64
2023/04/10 09:09:13;;;;;;;16.15;11.07;;;15.70;99.90;;;;;;5159141;27;20733;-65
2023/04/10 09:11:59;;;;;;;16.08;10.60;;;16.10;99.90;;;;;;5169852;27;20203;-65
2023/04/10 09:14:28;;;;;;;15.55;10.90;;;16.70;99.90;;;;;;5159405;27;20215;-66
2023/04/10 09:17:11;;;;;;;15.77;10.05;;;16.80;99.90;;;;;;5165203;27;20195;-64
2023/04/10 09:19:38;;;;;;;15.15;10.00;;;17.10;99.90;;;;;;5172050;27;20219;-65
2023/04/10 09:22:05;;;;;;;15.40;10.10;;;17.50;99.90;;;;;;5170628;27;20731;-65
2023/04/10 09:24:36;;;;;;;14.93;10.05;;;17.50;1.00;;;;;;5174988;27;20187;-65
2023/04/10 09:27:05;;;;;;;15.48;10.20;;;17.10;1.00;;;;;;5169081;27;20195;-71
2023/04/10 09:29:47;;;;;;;15.70;10.40;;;17.60;99.90;;;;;;5169112;27;20208;-70
2023/04/10 09:32:14;;;;;;;14.70;9.18;;;17.30;1.00;;;;;;5169586;27;20238;-71
2023/04/10 09:34:56;;;;;;;14.82;9.93;;;17.40;1.00;;;;;;5176245;27;20313;-71
2023/04/10 09:37:22;;;;;;;13.45;9.40;;;16.80;99.90;;;;;;5159543;27;20196;-71
2023/04/10 09:39:49;;;;;;;12.85;9.30;;;17.60;99.90;;;;;;5156973;27;20203;-70
2023/04/10 09:42:31;;;;;;;14.10;9.75;;;17.40;9.20;;;;;;5175426;27;20249;-70
2023/04/10 09:44:58;;;;;;;14.18;9.27;;;17.60;1.00;;;;;;5167665;27;20203;-71
2023/04/10 09:47:25;;;;;;;14.40;9.73;;;17.40;1.00;;;;;;5164180;27;20237;-70
2023/04/10 09:49:55;;;;;;;14.30;9.52;;;17.40;1.00;;;;;;5174272;27;20199;-70
2023/04/10 09:52:25;;;;;;;13.25;8.90;;;17.50;99.90;;;;;;5169753;27;20252;-70
2023/04/10 09:54:52;;;;;;;13.25;9.45;;;17.30;43.30;;;;;;5158290;27;20680;-70
2023/04/10 09:57:22;;;;;;;14.02;9.68;;;17.70;1.00;;;;;;5175628;27;20625;-70
2023/04/10 09:59:51;;;;;;;12.45;8.90;;;17.20;1.00;;;;;;5170104;27;20231;-70
2023/04/10 10:02:20;;;;;;;11.77;8.52;;;17.80;1.00;;;;;;5175568;27;20238;-70
2023/04/10 10:04:48;;;;;;;13.25;9.02;;;17.60;1.00;;;;;;5169327;27;20290;-70
2023/04/10 10:07:16;;;;;;;14.32;9.85;;;17.70;1.00;;;;;;5169503;27;20191;-69
2023/04/10 10:09:44;;;;;;;14.70;9.93;;;17.70;99.90;;;;;;5175226;27;20227;-71
2023/04/10 10:12:12;;;;;;;14.02;10.02;;;17.50;99.90;;;;;;5173621;27;20215;-70
2023/04/10 10:14:50;;;;;;;12.27;8.38;;;17.30;99.90;;;;;;5169623;27;20251;-70
2023/04/10 10:17:19;;;;;;;13.60;9.23;;;17.80;84.00;;;;;;5171066;27;20710;-70
2023/04/10 10:19:56;;;;;;;15.13;9.25;;;18.40;50.60;;;;;;5161971;27;20198;-71
2023/04/10 10:22:25;;;;;;;15.00;9.90;;;18.40;1.00;;;;;;5169049;27;20622;-70
2023/04/10 10:24:55;;;;;;;14.43;9.40;;;17.90;1.00;;;;;;5172271;27;20300;-70
2023/04/10 10:27:23;;;;;;;13.90;9.32;;;18.80;1.00;;;;;;5172686;27;20724;-70
2023/04/10 10:29:54;;;;;;;14.48;9.65;;;18.50;1.00;;;;;;5168286;27;20652;-70
2023/04/10 10:32:21;;;;;;;13.13;9.30;;;17.90;1.00;;;;;;5164709;27;20192;-70
2023/04/10 10:34:52;;;;;;;14.07;9.55;;;18.30;1.00;;;;;;5157448;27;20223;-70
2023/04/10 10:37:19;;;;;;;12.82;8.75;;;18.00;1.00;;;;;;5173920;27;20286;-70
2023/04/10 10:39:53;;;;;;;13.93;9.45;;;18.40;1.00;;;;;;5171539;27;20199;-70
2023/04/10 10:42:26;;;;;;;15.10;10.05;;;18.80;99.90;;;;;;5162976;27;20207;-70
2023/04/10 10:45:04;;;;;;;14.85;10.02;;;18.30;99.90;;;;;;5169998;27;20206;-70
2023/04/10 10:47:34;;;;;;;12.60;8.57;;;18.00;99.90;;;;;;5165911;27;20277;-70
2023/04/10 10:50:02;;;;;;;12.88;8.80;;;18.20;99.90;;;;;;5166393;27;20286;-70
2023/04/10 10:52:56;;;;;;;12.48;8.15;;;18.30;21.10;;;;;;5170172;27;20226;-70
2023/04/10 10:55:34;;;;;;;13.40;9.15;;;18.60;1.00;;;;;;5151293;27;20230;-70
2023/04/10 10:58:02;;;;;;;10.68;7.97;;;18.80;1.00;;;;;;5171155;27;20553;-70
2023/04/10 11:01:06;;;;;;;11.20;8.48;;;18.70;1.00;;;;;;5168429;27;20220;-70
2023/04/10 11:03:36;;;;;;;11.60;8.18;;;18.50;1.00;;;;;;5168861;27;20195;-70
2023/04/10 11:06:05;;;;;;;10.27;7.40;;;19.30;1.00;;;;;;5165933;27;20199;-70
2023/04/10 11:08:47;;;;;;;10.50;7.15;;;18.40;1.00;;;;;;5170344;27;20206;-70
2023/04/10 11:11:15;;;;;;;8.75;6.65;;;18.70;1.00;;;;;;5165211;27;20214;-70
2023/04/10 11:14:16;;;;;;;9.73;7.25;;;19.30;1.00;;;;;;5170665;27;20227;-70
2023/04/10 11:16:47;;;;;;;11.52;8.27;;;19.10;1.00;;;;;;5174886;27;20202;-70
2023/04/10 11:19:18;;;;;;;10.85;7.15;;;19.20;99.90;;;;;;5167173;27;20223;-70
2023/04/10 11:22:08;;;;;;;10.82;7.57;;;19.40;99.90;;;;;;5166503;27;20208;-70
2023/04/10 11:24:58;;;;;;;10.10;7.07;;;19.60;99.90;;;;;;5145482;27;20195;-70
2023/04/10 11:27:51;;;;;;;9.77;7.13;;;19.20;99.90;;;;;;5160434;27;20199;-70
2023/04/10 11:30:29;;;;;;;9.80;7.47;;;19.90;99.90;;;;;;5163626;27;20202;-70
2023/04/10 11:32:57;;;;;;;9.45;6.90;;;19.20;1.00;;;;;;5164059;27;20334;-69
2023/04/10 11:35:26;;;;;;;8.20;6.65;;;18.70;1.00;;;;;;5170251;27;20524;-70
2023/04/10 11:38:11;;;;;;;9.65;6.97;;;19.70;1.00;;;;;;5165893;27;20560;-70
2023/04/10 11:40:54;;;;;;;8.43;6.45;;;19.10;1.00;;;;;;5162987;27;20616;-70
2023/04/10 11:43:21;;;;;;;9.63;6.18;;;19.50;1.00;;;;;;5171597;27;20191;-70
2023/04/10 11:45:48;;;;;;;10.38;7.13;;;19.40;1.00;;;;;;5157556;27;20299;-70
2023/04/10 11:48:16;;;;;;;9.55;6.97;;;19.70;1.00;;;;;;5161637;27;20204;-70
2023/04/10 11:50:45;;;;;;;9.48;7.25;;;19.80;1.00;;;;;;5154260;27;20290;-69
2023/04/10 11:53:20;;;;;;;7.35;5.72;;;19.10;1.00;;;;;;5166330;27;20242;-70
2023/04/10 11:55:47;;;;;;;9.40;6.47;;;19.50;1.00;;;;;;5174899;27;20622;-69
2023/04/10 11:58:24;;;;;;;8.85;6.47;;;19.40;99.90;;;;;;5172193;27;20286;-70
2023/04/10 12:00:59;;;;;;;7.10;5.82;;;19.20;99.90;;;;;;5174412;27;20191;-69
2023/04/10 12:03:36;;;;;;;8.32;6.20;;;20.00;99.90;;;;;;5173390;27;20302;-70
2023/04/10 12:06:08;;;;;;;8.48;6.32;;;19.40;99.90;;;;;;5174874;27;20207;-70
2023/04/10 12:08:37;;;;;;;8.05;5.80;;;19.80;99.90;;;;;;5171357;27;20551;-70
2023/04/10 12:11:04;;;;;;;6.47;5.32;;;20.30;99.90;;;;;;5162742;27;20253;-69
2023/04/10 12:13:32;;;;;;;7.68;6.00;;;20.00;31.00;;;;;;5168949;27;20680;-69
2023/04/10 12:16:02;;;;;;;7.82;5.68;;;19.10;1.00;;;;;;5162507;27;20633;-69
2023/04/10 12:18:30;;;;;;;7.50;5.60;;;19.10;1.00;;;;;;5168712;27;20294;-69
2023/04/10 12:20:58;;;;;;;9.30;6.10;;;19.00;1.00;;;;;;5163483;27;20203;-69
2023/04/10 12:23:28;;;;;;;9.50;6.68;;;19.10;1.00;;;;;;5159484;27;20280;-69
2023/04/10 12:26:15;;;;;;;9.93;6.20;;;19.00;1.00;;;;;;5162849;27;20271;-69
2023/04/10 12:28:51;;;;;;;7.40;5.60;;;19.40;1.00;;;;;;5167615;27;20387;-69
2023/04/10 12:31:18;;;;;;;7.82;5.47;;;19.80;1.00;;;;;;5162358;27;20242;-69
2023/04/10 12:33:46;;;;;;;8.02;5.50;;;19.90;1.00;;;;;;5161627;27;20278;-69
2023/04/10 12:36:23;;;;;;;7.78;5.55;;;19.40;1.00;;;;;;5164813;27;20227;-70
2023/04/10 12:38:51;;;;;;;6.90;5.50;;;19.40;1.00;;;;;;5158560;27;20737;-69
2023/04/10 12:41:22;;;;;;;9.57;6.38;;;18.90;1.00;;;;;;5164171;27;20308;-69
2023/04/10 12:43:49;;;;;;;6.57;5.28;;;19.30;1.00;;;;;;5165264;27;20207;-69
2023/04/10 12:46:24;;;;;;;7.25;5.78;;;19.40;99.90;;;;;;5165962;27;20195;-69
2023/04/10 12:48:53;;;;;;;8.43;6.20;;;19.10;99.90;;;;;;5162795;27;20195;-69